sensor_id;sensor_type;location;lat;lon;timestamp;P1;durP1;ratioP1;P2;durP2;ratioP2
10535;SDS011;5316;49.538;8.352;2023-05-02T00:00:45;1.80;;;1.70;;
10535;SDS011;5316;49.538;8.352;2023-05-02T00:03:12;1.93;;;1.83;;
10535;SDS011;5316;49.538;8.352;2023-05-02T00:05:40;1.50;;;1.50;;
10535;SDS011;5316;49.538;8.352;2023-05-02T00:08:08;1.93;;;1.77;;
10535;SDS011;5316;49.538;8.352;2023-05-02T00:10:36;2.07;;;1.97;;
10535;SDS011;5316;49.538;8.352;2023-05-02T00:13:03;2.17;;;2.00;;
10535;SDS011;5316;49.538;8.352;2023-05-02T00:15:29;1.93;;;1.83;;
10535;SDS011;5316;49.538;8.352;2023-05-02T00:17:56;2.27;;;2.07;;
10535;SDS011;5316;49.538;8.352;2023-05-02T00:20:24;1.90;;;1.80;;
10535;SDS011;5316;49.538;8.352;2023-05-02T00:22:51;2.00;;;1.90;;
10535;SDS011;5316;49.538;8.352;2023-05-02T00:25:19;2.70;;;1.90;;
10535;SDS011;5316;49.538;8.352;2023-05-02T00:27:46;2.10;;;2.00;;
10535;SDS011;5316;49.538;8.352;2023-05-02T00:30:15;2.00;;;1.90;;
10535;SDS011;5316;49.538;8.352;2023-05-02T00:32:42;1.90;;;1.80;;
10535;SDS011;5316;49.538;8.352;2023-05-02T00:35:09;2.33;;;2.23;;
10535;SDS011;5316;49.538;8.352;2023-05-02T00:37:35;2.73;;;2.53;;
10535;SDS011;5316;49.538;8.352;2023-05-02T00:40:03;2.40;;;2.30;;
10535;SDS011;5316;49.538;8.352;2023-05-02T00:42:33;2.37;;;2.27;;
10535;SDS011;5316;49.538;8.352;2023-05-02T00:45:00;2.20;;;2.10;;
10535;SDS011;5316;49.538;8.352;2023-05-02T00:47:28;2.47;;;2.37;;
10535;SDS011;5316;49.538;8.352;2023-05-02T00:49:55;2.27;;;2.17;;
10535;SDS011;5316;49.538;8.352;2023-05-02T00:52:23;2.47;;;2.27;;
10535;SDS011;5316;49.538;8.352;2023-05-02T00:54:50;2.40;;;2.30;;
10535;SDS011;5316;49.538;8.352;2023-05-02T00:57:17;2.67;;;2.47;;
10535;SDS011;5316;49.538;8.352;2023-05-02T00:59:46;2.37;;;2.27;;
10535;SDS011;5316;49.538;8.352;2023-05-02T01:02:18;2.53;;;2.33;;
10535;SDS011;5316;49.538;8.352;2023-05-02T01:04:58;2.33;;;2.23;;
10535;SDS011;5316;49.538;8.352;2023-05-02T01:07:34;2.70;;;2.60;;
10535;SDS011;5316;49.538;8.352;2023-05-02T01:10:13;2.57;;;2.37;;
10535;SDS011;5316;49.538;8.352;2023-05-02T01:12:48;2.57;;;2.47;;
10535;SDS011;5316;49.538;8.352;2023-05-02T01:15:22;3.13;;;2.43;;
10535;SDS011;5316;49.538;8.352;2023-05-02T01:17:50;4.50;;;2.50;;
10535;SDS011;5316;49.538;8.352;2023-05-02T01:20:20;3.13;;;2.83;;
10535;SDS011;5316;49.538;8.352;2023-05-02T01:22:51;3.03;;;2.83;;
10535;SDS011;5316;49.538;8.352;2023-05-02T01:25:21;2.93;;;2.73;;
10535;SDS011;5316;49.538;8.352;2023-05-02T01:27:56;3.20;;;3.00;;
10535;SDS011;5316;49.538;8.352;2023-05-02T01:30:31;2.80;;;2.70;;
10535;SDS011;5316;49.538;8.352;2023-05-02T01:33:01;2.80;;;2.70;;
10535;SDS011;5316;49.538;8.352;2023-05-02T01:35:30;3.27;;;3.07;;
10535;SDS011;5316;49.538;8.352;2023-05-02T01:37:59;3.17;;;3.00;;
10535;SDS011;5316;49.538;8.352;2023-05-02T01:40:27;2.80;;;2.67;;
10535;SDS011;5316;49.538;8.352;2023-05-02T01:42:54;4.53;;;3.37;;
10535;SDS011;5316;49.538;8.352;2023-05-02T01:45:23;3.20;;;3.00;;
10535;SDS011;5316;49.538;8.352;2023-05-02T01:47:52;3.60;;;3.30;;
10535;SDS011;5316;49.538;8.352;2023-05-02T01:50:20;3.50;;;3.30;;
10535;SDS011;5316;49.538;8.352;2023-05-02T01:53:00;3.63;;;3.40;;
10535;SDS011;5316;49.538;8.352;2023-05-02T01:55:29;4.33;;;3.93;;
10535;SDS011;5316;49.538;8.352;2023-05-02T01:58:00;4.33;;;4.00;;
10535;SDS011;5316;49.538;8.352;2023-05-02T02:00:27;3.87;;;3.67;;
10535;SDS011;5316;49.538;8.352;2023-05-02T02:02:57;4.17;;;3.87;;
10535;SDS011;5316;49.538;8.352;2023-05-02T02:05:24;4.77;;;4.10;;
10535;SDS011;5316;49.538;8.352;2023-05-02T02:07:53;4.13;;;3.90;;
10535;SDS011;5316;49.538;8.352;2023-05-02T02:10:20;4.73;;;4.30;;
10535;SDS011;5316;49.538;8.352;2023-05-02T02:12:49;4.00;;;3.80;;
10535;SDS011;5316;49.538;8.352;2023-05-02T02:15:20;4.47;;;4.17;;
10535;SDS011;5316;49.538;8.352;2023-05-02T02:17:53;4.37;;;4.17;;
10535;SDS011;5316;49.538;8.352;2023-05-02T02:20:25;4.67;;;4.27;;
10535;SDS011;5316;49.538;8.352;2023-05-02T02:22:53;4.53;;;4.30;;
10535;SDS011;5316;49.538;8.352;2023-05-02T02:25:21;5.13;;;4.83;;
10535;SDS011;5316;49.538;8.352;2023-05-02T02:27:50;5.00;;;4.63;;
10535;SDS011;5316;49.538;8.352;2023-05-02T02:30:18;5.23;;;4.93;;
10535;SDS011;5316;49.538;8.352;2023-05-02T02:32:44;5.30;;;4.90;;
10535;SDS011;5316;49.538;8.352;2023-05-02T02:35:13;5.43;;;5.13;;
10535;SDS011;5316;49.538;8.352;2023-05-02T02:37:40;5.60;;;5.20;;
10535;SDS011;5316;49.538;8.352;2023-05-02T02:40:17;5.67;;;5.27;;
10535;SDS011;5316;49.538;8.352;2023-05-02T02:42:50;5.83;;;5.43;;
10535;SDS011;5316;49.538;8.352;2023-05-02T02:45:26;6.03;;;5.53;;
10535;SDS011;5316;49.538;8.352;2023-05-02T02:48:10;5.50;;;5.20;;
10535;SDS011;5316;49.538;8.352;2023-05-02T02:50:49;6.10;;;5.60;;
10535;SDS011;5316;49.538;8.352;2023-05-02T02:53:25;6.67;;;6.17;;
10535;SDS011;5316;49.538;8.352;2023-05-02T02:56:00;7.10;;;6.50;;
10535;SDS011;5316;49.538;8.352;2023-05-02T02:58:34;6.57;;;6.17;;
10535;SDS011;5316;49.538;8.352;2023-05-02T03:01:09;6.60;;;6.00;;
10535;SDS011;5316;49.538;8.352;2023-05-02T03:03:41;6.50;;;6.00;;
10535;SDS011;5316;49.538;8.352;2023-05-02T03:06:10;7.03;;;6.43;;
10535;SDS011;5316;49.538;8.352;2023-05-02T03:08:37;7.07;;;6.57;;
10535;SDS011;5316;49.538;8.352;2023-05-02T03:11:05;6.93;;;6.40;;
10535;SDS011;5316;49.538;8.352;2023-05-02T03:13:32;8.83;;;7.10;;
10535;SDS011;5316;49.538;8.352;2023-05-02T03:16:17;7.70;;;7.07;;
10535;SDS011;5316;49.538;8.352;2023-05-02T03:18:57;11.10;;;6.60;;
10535;SDS011;5316;49.538;8.352;2023-05-02T03:21:25;7.20;;;6.70;;
10535;SDS011;5316;49.538;8.352;2023-05-02T03:23:52;9.60;;;7.40;;
10535;SDS011;5316;49.538;8.352;2023-05-02T03:26:19;8.40;;;7.70;;
10535;SDS011;5316;49.538;8.352;2023-05-02T03:28:46;8.00;;;7.40;;
10535;SDS011;5316;49.538;8.352;2023-05-02T03:31:14;8.33;;;7.73;;
10535;SDS011;5316;49.538;8.352;2023-05-02T03:33:41;9.37;;;8.60;;
10535;SDS011;5316;49.538;8.352;2023-05-02T03:36:08;9.27;;;8.37;;
10535;SDS011;5316;49.538;8.352;2023-05-02T03:38:36;9.47;;;8.67;;
10535;SDS011;5316;49.538;8.352;2023-05-02T03:41:03;10.30;;;9.50;;
10535;SDS011;5316;49.538;8.352;2023-05-02T03:43:30;10.03;;;9.27;;
10535;SDS011;5316;49.538;8.352;2023-05-02T03:46:03;10.23;;;9.43;;
10535;SDS011;5316;49.538;8.352;2023-05-02T03:48:31;12.03;;;11.03;;
10535;SDS011;5316;49.538;8.352;2023-05-02T03:50:58;10.70;;;9.83;;
10535;SDS011;5316;49.538;8.352;2023-05-02T03:53:25;11.80;;;10.80;;
10535;SDS011;5316;49.538;8.352;2023-05-02T03:55:53;11.97;;;10.83;;
10535;SDS011;5316;49.538;8.352;2023-05-02T03:58:20;12.17;;;10.97;;
10535;SDS011;5316;49.538;8.352;2023-05-02T04:00:47;13.43;;;12.13;;
10535;SDS011;5316;49.538;8.352;2023-05-02T04:03:14;12.73;;;11.60;;
10535;SDS011;5316;49.538;8.352;2023-05-02T04:05:41;12.73;;;11.53;;
10535;SDS011;5316;49.538;8.352;2023-05-02T04:08:07;13.40;;;12.10;;
10535;SDS011;5316;49.538;8.352;2023-05-02T04:10:35;13.87;;;12.47;;
10535;SDS011;5316;49.538;8.352;2023-05-02T04:13:03;13.63;;;12.43;;
10535;SDS011;5316;49.538;8.352;2023-05-02T04:15:30;15.23;;;13.80;;
10535;SDS011;5316;49.538;8.352;2023-05-02T04:17:57;15.73;;;14.23;;
10535;SDS011;5316;49.538;8.352;2023-05-02T04:20:24;14.97;;;13.53;;
10535;SDS011;5316;49.538;8.352;2023-05-02T04:22:51;15.70;;;14.23;;
10535;SDS011;5316;49.538;8.352;2023-05-02T04:25:18;17.10;;;15.40;;
10535;SDS011;5316;49.538;8.352;2023-05-02T04:27:45;17.03;;;15.43;;
10535;SDS011;5316;49.538;8.352;2023-05-02T04:30:13;16.93;;;15.33;;
10535;SDS011;5316;49.538;8.352;2023-05-02T04:32:40;17.60;;;15.77;;
10535;SDS011;5316;49.538;8.352;2023-05-02T04:35:07;19.20;;;17.20;;
10535;SDS011;5316;49.538;8.352;2023-05-02T04:37:35;18.07;;;16.00;;
10535;SDS011;5316;49.538;8.352;2023-05-02T04:40:02;18.23;;;16.53;;
10535;SDS011;5316;49.538;8.352;2023-05-02T04:42:30;20.73;;;18.57;;
10535;SDS011;5316;49.538;8.352;2023-05-02T04:44:59;18.73;;;17.03;;
10535;SDS011;5316;49.538;8.352;2023-05-02T04:47:27;19.70;;;17.77;;
10535;SDS011;5316;49.538;8.352;2023-05-02T04:49:54;19.93;;;17.97;;
10535;SDS011;5316;49.538;8.352;2023-05-02T04:52:21;20.63;;;18.53;;
10535;SDS011;5316;49.538;8.352;2023-05-02T04:57:55;21.37;;;18.73;;
10535;SDS011;5316;49.538;8.352;2023-05-02T05:00:22;22.73;;;20.47;;
10535;SDS011;5316;49.538;8.352;2023-05-02T05:02:50;22.27;;;19.93;;
10535;SDS011;5316;49.538;8.352;2023-05-02T05:05:17;22.50;;;20.13;;
10535;SDS011;5316;49.538;8.352;2023-05-02T05:07:45;23.27;;;20.70;;
10535;SDS011;5316;49.538;8.352;2023-05-02T05:10:11;22.53;;;20.13;;
10535;SDS011;5316;49.538;8.352;2023-05-02T05:12:38;24.40;;;21.90;;
10535;SDS011;5316;49.538;8.352;2023-05-02T05:15:06;26.20;;;23.43;;
10535;SDS011;5316;49.538;8.352;2023-05-02T05:17:34;26.70;;;24.10;;
10535;SDS011;5316;49.538;8.352;2023-05-02T05:20:03;26.20;;;23.50;;
10535;SDS011;5316;49.538;8.352;2023-05-02T05:22:38;26.27;;;23.47;;
10535;SDS011;5316;49.538;8.352;2023-05-02T05:25:06;31.77;;;27.00;;
10535;SDS011;5316;49.538;8.352;2023-05-02T05:27:34;34.47;;;29.87;;
10535;SDS011;5316;49.538;8.352;2023-05-02T05:30:01;32.90;;;28.43;;
10535;SDS011;5316;49.538;8.352;2023-05-02T05:32:29;36.60;;;31.53;;
10535;SDS011;5316;49.538;8.352;2023-05-02T05:34:57;35.80;;;31.47;;
10535;SDS011;5316;49.538;8.352;2023-05-02T05:37:26;36.43;;;31.90;;
10535;SDS011;5316;49.538;8.352;2023-05-02T05:39:53;37.83;;;33.50;;
10535;SDS011;5316;49.538;8.352;2023-05-02T05:42:20;44.57;;;35.63;;
10535;SDS011;5316;49.538;8.352;2023-05-02T05:44:47;40.73;;;33.60;;
10535;SDS011;5316;49.538;8.352;2023-05-02T05:47:17;41.97;;;35.27;;
10535;SDS011;5316;49.538;8.352;2023-05-02T05:49:45;42.87;;;35.60;;
10535;SDS011;5316;49.538;8.352;2023-05-02T05:52:12;42.17;;;34.80;;
10535;SDS011;5316;49.538;8.352;2023-05-02T05:54:40;45.47;;;36.50;;
10535;SDS011;5316;49.538;8.352;2023-05-02T05:57:07;47.23;;;37.80;;
10535;SDS011;5316;49.538;8.352;2023-05-02T05:59:35;51.50;;;39.90;;
10535;SDS011;5316;49.538;8.352;2023-05-02T06:02:02;48.30;;;38.57;;
10535;SDS011;5316;49.538;8.352;2023-05-02T06:04:29;49.80;;;40.50;;
10535;SDS011;5316;49.538;8.352;2023-05-02T06:06:58;52.97;;;41.03;;
10535;SDS011;5316;49.538;8.352;2023-05-02T06:09:25;55.70;;;40.37;;
10535;SDS011;5316;49.538;8.352;2023-05-02T06:11:54;53.03;;;40.60;;
10535;SDS011;5316;49.538;8.352;2023-05-02T06:14:21;57.37;;;41.33;;
10535;SDS011;5316;49.538;8.352;2023-05-02T06:16:48;54.23;;;41.57;;
10535;SDS011;5316;49.538;8.352;2023-05-02T06:19:15;54.60;;;42.00;;
10535;SDS011;5316;49.538;8.352;2023-05-02T06:21:42;53.67;;;41.27;;
10535;SDS011;5316;49.538;8.352;2023-05-02T06:24:09;53.77;;;41.67;;
10535;SDS011;5316;49.538;8.352;2023-05-02T06:26:36;53.00;;;41.53;;
10535;SDS011;5316;49.538;8.352;2023-05-02T06:29:05;56.80;;;42.23;;
10535;SDS011;5316;49.538;8.352;2023-05-02T06:31:32;52.03;;;41.10;;
10535;SDS011;5316;49.538;8.352;2023-05-02T06:33:58;52.80;;;41.93;;
10535;SDS011;5316;49.538;8.352;2023-05-02T06:36:25;56.90;;;42.73;;
10535;SDS011;5316;49.538;8.352;2023-05-02T06:38:52;58.30;;;42.20;;
10535;SDS011;5316;49.538;8.352;2023-05-02T06:41:20;53.13;;;41.20;;
10535;SDS011;5316;49.538;8.352;2023-05-02T06:43:47;53.40;;;42.20;;
10535;SDS011;5316;49.538;8.352;2023-05-02T06:46:16;52.60;;;40.30;;
10535;SDS011;5316;49.538;8.352;2023-05-02T06:48:44;50.30;;;40.47;;
10535;SDS011;5316;49.538;8.352;2023-05-02T06:51:12;50.20;;;41.27;;
10535;SDS011;5316;49.538;8.352;2023-05-02T06:53:40;53.40;;;41.07;;
10535;SDS011;5316;49.538;8.352;2023-05-02T06:56:06;51.80;;;40.67;;
10535;SDS011;5316;49.538;8.352;2023-05-02T06:58:34;58.60;;;44.43;;
10535;SDS011;5316;49.538;8.352;2023-05-02T07:01:01;53.73;;;41.73;;
10535;SDS011;5316;49.538;8.352;2023-05-02T07:03:29;49.43;;;40.60;;
10535;SDS011;5316;49.538;8.352;2023-05-02T07:05:56;50.47;;;39.90;;
10535;SDS011;5316;49.538;8.352;2023-05-02T07:08:23;48.37;;;39.03;;
10535;SDS011;5316;49.538;8.352;2023-05-02T07:10:50;53.60;;;40.97;;
10535;SDS011;5316;49.538;8.352;2023-05-02T07:13:18;52.30;;;40.33;;
10535;SDS011;5316;49.538;8.352;2023-05-02T07:15:45;48.70;;;39.73;;
10535;SDS011;5316;49.538;8.352;2023-05-02T07:18:12;49.53;;;38.80;;
10535;SDS011;5316;49.538;8.352;2023-05-02T07:20:40;47.27;;;37.47;;
10535;SDS011;5316;49.538;8.352;2023-05-02T07:23:07;52.57;;;38.63;;
10535;SDS011;5316;49.538;8.352;2023-05-02T07:25:34;49.47;;;38.43;;
10535;SDS011;5316;49.538;8.352;2023-05-02T07:28:02;74.47;;;41.27;;
10535;SDS011;5316;49.538;8.352;2023-05-02T07:30:29;58.17;;;38.83;;
10535;SDS011;5316;49.538;8.352;2023-05-02T07:32:56;48.67;;;38.03;;
10535;SDS011;5316;49.538;8.352;2023-05-02T07:35:23;54.20;;;42.57;;
10535;SDS011;5316;49.538;8.352;2023-05-02T07:37:52;49.00;;;37.57;;
10535;SDS011;5316;49.538;8.352;2023-05-02T07:40:19;45.37;;;37.27;;
10535;SDS011;5316;49.538;8.352;2023-05-02T07:42:47;47.67;;;39.23;;
10535;SDS011;5316;49.538;8.352;2023-05-02T07:45:14;45.67;;;37.77;;
10535;SDS011;5316;49.538;8.352;2023-05-02T07:47:41;46.93;;;37.37;;
10535;SDS011;5316;49.538;8.352;2023-05-02T07:50:09;46.73;;;38.57;;
10535;SDS011;5316;49.538;8.352;2023-05-02T07:52:36;46.63;;;38.57;;
10535;SDS011;5316;49.538;8.352;2023-05-02T07:55:05;48.23;;;37.30;;
10535;SDS011;5316;49.538;8.352;2023-05-02T07:57:32;44.80;;;36.70;;
10535;SDS011;5316;49.538;8.352;2023-05-02T07:59:59;45.47;;;35.50;;
10535;SDS011;5316;49.538;8.352;2023-05-02T08:02:26;47.43;;;37.20;;
10535;SDS011;5316;49.538;8.352;2023-05-02T08:04:53;44.70;;;35.93;;
10535;SDS011;5316;49.538;8.352;2023-05-02T08:07:20;47.33;;;32.97;;
10535;SDS011;5316;49.538;8.352;2023-05-02T08:09:47;44.90;;;35.27;;
10535;SDS011;5316;49.538;8.352;2023-05-02T08:12:15;42.30;;;34.30;;
10535;SDS011;5316;49.538;8.352;2023-05-02T08:14:42;48.73;;;36.80;;
10535;SDS011;5316;49.538;8.352;2023-05-02T08:17:09;43.20;;;34.07;;
10535;SDS011;5316;49.538;8.352;2023-05-02T08:19:36;44.90;;;34.67;;
10535;SDS011;5316;49.538;8.352;2023-05-02T08:22:03;43.33;;;34.20;;
10535;SDS011;5316;49.538;8.352;2023-05-02T08:24:30;42.67;;;33.93;;
10535;SDS011;5316;49.538;8.352;2023-05-02T08:26:57;38.90;;;32.10;;
10535;SDS011;5316;49.538;8.352;2023-05-02T08:29:25;40.93;;;33.47;;
10535;SDS011;5316;49.538;8.352;2023-05-02T08:31:52;37.23;;;30.53;;
10535;SDS011;5316;49.538;8.352;2023-05-02T08:34:19;34.50;;;30.27;;
10535;SDS011;5316;49.538;8.352;2023-05-02T08:36:46;39.60;;;31.20;;
10535;SDS011;5316;49.538;8.352;2023-05-02T08:39:13;34.13;;;29.57;;
10535;SDS011;5316;49.538;8.352;2023-05-02T08:41:41;33.33;;;28.53;;
10535;SDS011;5316;49.538;8.352;2023-05-02T08:44:09;36.00;;;29.73;;
10535;SDS011;5316;49.538;8.352;2023-05-02T08:46:39;33.77;;;28.97;;
10535;SDS011;5316;49.538;8.352;2023-05-02T08:49:07;36.57;;;29.30;;
10535;SDS011;5316;49.538;8.352;2023-05-02T08:51:36;35.90;;;29.60;;
10535;SDS011;5316;49.538;8.352;2023-05-02T08:54:04;36.50;;;27.70;;
10535;SDS011;5316;49.538;8.352;2023-05-02T08:56:34;31.33;;;27.47;;
10535;SDS011;5316;49.538;8.352;2023-05-02T08:59:02;34.40;;;27.93;;
10535;SDS011;5316;49.538;8.352;2023-05-02T09:01:31;35.20;;;27.17;;
10535;SDS011;5316;49.538;8.352;2023-05-02T09:04:02;30.93;;;24.07;;
10535;SDS011;5316;49.538;8.352;2023-05-02T09:06:29;33.67;;;26.33;;
10535;SDS011;5316;49.538;8.352;2023-05-02T09:08:58;31.20;;;25.33;;
10535;SDS011;5316;49.538;8.352;2023-05-02T09:11:25;27.90;;;22.70;;
10535;SDS011;5316;49.538;8.352;2023-05-02T09:13:54;28.17;;;23.47;;
10535;SDS011;5316;49.538;8.352;2023-05-02T09:16:23;26.40;;;22.03;;
10535;SDS011;5316;49.538;8.352;2023-05-02T09:18:51;30.07;;;23.47;;
10535;SDS011;5316;49.538;8.352;2023-05-02T09:21:22;32.07;;;24.67;;
10535;SDS011;5316;49.538;8.352;2023-05-02T09:23:50;31.47;;;24.30;;
10535;SDS011;5316;49.538;8.352;2023-05-02T09:26:18;26.63;;;21.13;;
10535;SDS011;5316;49.538;8.352;2023-05-02T09:28:46;27.33;;;21.03;;
10535;SDS011;5316;49.538;8.352;2023-05-02T09:31:14;26.07;;;21.50;;
10535;SDS011;5316;49.538;8.352;2023-05-02T09:33:42;23.33;;;20.13;;
10535;SDS011;5316;49.538;8.352;2023-05-02T09:36:11;23.80;;;18.47;;
10535;SDS011;5316;49.538;8.352;2023-05-02T09:52:12;21.10;;;16.40;;
10535;SDS011;5316;49.538;8.352;2023-05-02T09:54:40;22.20;;;16.60;;
10535;SDS011;5316;49.538;8.352;2023-05-02T09:57:07;23.37;;;16.67;;
10535;SDS011;5316;49.538;8.352;2023-05-02T09:59:35;28.73;;;19.87;;
10535;SDS011;5316;49.538;8.352;2023-05-02T10:02:02;19.73;;;15.30;;
10535;SDS011;5316;49.538;8.352;2023-05-02T10:04:31;24.70;;;19.10;;
10535;SDS011;5316;49.538;8.352;2023-05-02T10:06:59;27.13;;;19.47;;
10535;SDS011;5316;49.538;8.352;2023-05-02T10:09:30;24.10;;;18.93;;
10535;SDS011;5316;49.538;8.352;2023-05-02T10:12:01;23.47;;;18.30;;
10535;SDS011;5316;49.538;8.352;2023-05-02T10:14:29;25.43;;;17.83;;
10535;SDS011;5316;49.538;8.352;2023-05-02T10:16:58;23.17;;;18.23;;
10535;SDS011;5316;49.538;8.352;2023-05-02T10:19:29;22.83;;;18.23;;
10535;SDS011;5316;49.538;8.352;2023-05-02T10:21:58;22.37;;;17.77;;
10535;SDS011;5316;49.538;8.352;2023-05-02T10:24:25;16.97;;;13.43;;
10535;SDS011;5316;49.538;8.352;2023-05-02T10:26:55;19.00;;;14.30;;
10535;SDS011;5316;49.538;8.352;2023-05-02T10:29:21;18.20;;;14.17;;
10535;SDS011;5316;49.538;8.352;2023-05-02T10:31:49;17.30;;;13.93;;
10535;SDS011;5316;49.538;8.352;2023-05-02T10:34:16;17.57;;;12.73;;
10535;SDS011;5316;49.538;8.352;2023-05-02T10:36:44;14.40;;;11.90;;
10535;SDS011;5316;49.538;8.352;2023-05-02T10:39:11;17.00;;;12.03;;
10535;SDS011;5316;49.538;8.352;2023-05-02T10:41:38;17.23;;;12.70;;
10535;SDS011;5316;49.538;8.352;2023-05-02T10:44:08;16.13;;;11.97;;
10535;SDS011;5316;49.538;8.352;2023-05-02T10:46:36;15.87;;;12.13;;
10535;SDS011;5316;49.538;8.352;2023-05-02T10:49:05;15.00;;;11.63;;
10535;SDS011;5316;49.538;8.352;2023-05-02T10:51:33;14.57;;;10.43;;
10535;SDS011;5316;49.538;8.352;2023-05-02T10:54:17;22.57;;;17.00;;
10535;SDS011;5316;49.538;8.352;2023-05-02T10:57:00;13.93;;;10.37;;
10535;SDS011;5316;49.538;8.352;2023-05-02T10:59:32;13.47;;;11.57;;
10535;SDS011;5316;49.538;8.352;2023-05-02T11:02:00;14.50;;;10.90;;
10535;SDS011;5316;49.538;8.352;2023-05-02T11:07:28;13.87;;;11.33;;
10535;SDS011;5316;49.538;8.352;2023-05-02T11:12:52;16.13;;;11.77;;
10535;SDS011;5316;49.538;8.352;2023-05-02T11:18:21;15.10;;;11.27;;
10535;SDS011;5316;49.538;8.352;2023-05-02T11:20:48;14.20;;;10.83;;
10535;SDS011;5316;49.538;8.352;2023-05-02T11:23:19;16.93;;;12.03;;
10535;SDS011;5316;49.538;8.352;2023-05-02T11:25:50;15.50;;;11.07;;
10535;SDS011;5316;49.538;8.352;2023-05-02T11:31:08;8.87;;;7.40;;
10535;SDS011;5316;49.538;8.352;2023-05-02T11:33:56;8.53;;;7.17;;
10535;SDS011;5316;49.538;8.352;2023-05-02T11:36:26;9.33;;;7.73;;
10535;SDS011;5316;49.538;8.352;2023-05-02T11:38:54;10.17;;;8.10;;
10535;SDS011;5316;49.538;8.352;2023-05-02T11:41:21;10.13;;;7.37;;
10535;SDS011;5316;49.538;8.352;2023-05-02T11:43:49;9.90;;;8.23;;
10535;SDS011;5316;49.538;8.352;2023-05-02T11:46:29;10.10;;;7.67;;
10535;SDS011;5316;49.538;8.352;2023-05-02T11:48:56;9.37;;;7.33;;
10535;SDS011;5316;49.538;8.352;2023-05-02T11:51:23;10.33;;;7.63;;
10535;SDS011;5316;49.538;8.352;2023-05-02T11:53:51;8.07;;;7.07;;
10535;SDS011;5316;49.538;8.352;2023-05-02T11:56:21;10.30;;;7.57;;
10535;SDS011;5316;49.538;8.352;2023-05-02T11:58:56;8.37;;;6.87;;
10535;SDS011;5316;49.538;8.352;2023-05-02T12:01:24;8.53;;;6.73;;
10535;SDS011;5316;49.538;8.352;2023-05-02T12:04:01;7.37;;;6.43;;
10535;SDS011;5316;49.538;8.352;2023-05-02T12:06:28;7.33;;;6.53;;
10535;SDS011;5316;49.538;8.352;2023-05-02T12:09:05;8.43;;;6.63;;
10535;SDS011;5316;49.538;8.352;2023-05-02T12:11:33;10.57;;;7.37;;
10535;SDS011;5316;49.538;8.352;2023-05-02T12:14:02;10.87;;;7.50;;
10535;SDS011;5316;49.538;8.352;2023-05-02T12:16:29;8.40;;;7.57;;
10535;SDS011;5316;49.538;8.352;2023-05-02T12:18:58;10.03;;;8.27;;
10535;SDS011;5316;49.538;8.352;2023-05-02T12:21:27;9.17;;;7.90;;
10535;SDS011;5316;49.538;8.352;2023-05-02T12:23:56;10.70;;;8.33;;
10535;SDS011;5316;49.538;8.352;2023-05-02T12:26:24;11.73;;;8.53;;
10535;SDS011;5316;49.538;8.352;2023-05-02T12:28:55;11.10;;;8.50;;
10535;SDS011;5316;49.538;8.352;2023-05-02T12:31:22;11.20;;;8.07;;
10535;SDS011;5316;49.538;8.352;2023-05-02T12:33:51;10.27;;;8.50;;
10535;SDS011;5316;49.538;8.352;2023-05-02T12:36:21;9.63;;;7.80;;
10535;SDS011;5316;49.538;8.352;2023-05-02T12:38:50;8.63;;;7.60;;
10535;SDS011;5316;49.538;8.352;2023-05-02T12:41:18;7.67;;;6.47;;
10535;SDS011;5316;49.538;8.352;2023-05-02T12:43:55;7.20;;;6.37;;
10535;SDS011;5316;49.538;8.352;2023-05-02T12:46:22;6.53;;;5.93;;
10535;SDS011;5316;49.538;8.352;2023-05-02T12:48:59;6.20;;;5.60;;
10535;SDS011;5316;49.538;8.352;2023-05-02T12:51:27;7.13;;;5.03;;
10535;SDS011;5316;49.538;8.352;2023-05-02T12:53:57;5.30;;;4.80;;
10535;SDS011;5316;49.538;8.352;2023-05-02T12:56:24;5.93;;;4.93;;
10535;SDS011;5316;49.538;8.352;2023-05-02T12:58:55;5.50;;;4.87;;
10535;SDS011;5316;49.538;8.352;2023-05-02T13:01:24;9.03;;;7.33;;
10535;SDS011;5316;49.538;8.352;2023-05-02T13:03:51;4.53;;;4.10;;
10535;SDS011;5316;49.538;8.352;2023-05-02T13:06:18;3.47;;;3.27;;
10535;SDS011;5316;49.538;8.352;2023-05-02T13:08:45;3.77;;;3.53;;
10535;SDS011;5316;49.538;8.352;2023-05-02T13:11:13;5.30;;;3.23;;
10535;SDS011;5316;49.538;8.352;2023-05-02T13:13:40;4.27;;;3.87;;
10535;SDS011;5316;49.538;8.352;2023-05-02T13:16:07;4.77;;;4.27;;
10535;SDS011;5316;49.538;8.352;2023-05-02T13:18:33;4.60;;;4.20;;
10535;SDS011;5316;49.538;8.352;2023-05-02T13:21:00;6.87;;;4.83;;
10535;SDS011;5316;49.538;8.352;2023-05-02T13:23:29;4.83;;;4.20;;
10535;SDS011;5316;49.538;8.352;2023-05-02T13:25:55;3.97;;;3.67;;
10535;SDS011;5316;49.538;8.352;2023-05-02T13:28:24;5.00;;;4.30;;
10535;SDS011;5316;49.538;8.352;2023-05-02T13:30:51;5.53;;;4.93;;
10535;SDS011;5316;49.538;8.352;2023-05-02T13:33:18;5.67;;;5.17;;
10535;SDS011;5316;49.538;8.352;2023-05-02T13:35:45;6.28;;;4.60;;
10535;SDS011;5316;49.538;8.352;2023-05-02T13:38:12;4.55;;;4.15;;
10535;SDS011;5316;49.538;8.352;2023-05-02T13:40:39;4.72;;;4.32;;
10535;SDS011;5316;49.538;8.352;2023-05-02T13:43:05;4.55;;;3.83;;
10535;SDS011;5316;49.538;8.352;2023-05-02T13:45:34;4.60;;;4.20;;
10535;SDS011;5316;49.538;8.352;2023-05-02T13:48:00;3.65;;;3.35;;
10535;SDS011;5316;49.538;8.352;2023-05-02T13:50:27;3.70;;;3.40;;
10535;SDS011;5316;49.538;8.352;2023-05-02T13:52:54;5.65;;;4.53;;
10535;SDS011;5316;49.538;8.352;2023-05-02T13:55:22;5.55;;;5.05;;
10535;SDS011;5316;49.538;8.352;2023-05-02T13:57:49;4.07;;;3.78;;
10535;SDS011;5316;49.538;8.352;2023-05-02T14:00:16;4.95;;;3.50;;
10535;SDS011;5316;49.538;8.352;2023-05-02T14:02:44;4.50;;;3.80;;
10535;SDS011;5316;49.538;8.352;2023-05-02T14:05:12;3.92;;;3.20;;
10535;SDS011;5316;49.538;8.352;2023-05-02T14:07:39;3.65;;;3.35;;
10535;SDS011;5316;49.538;8.352;2023-05-02T14:10:06;3.17;;;2.88;;
10535;SDS011;5316;49.538;8.352;2023-05-02T14:12:34;4.60;;;3.95;;
10535;SDS011;5316;49.538;8.352;2023-05-02T14:15:01;3.08;;;2.88;;
10535;SDS011;5316;49.538;8.352;2023-05-02T14:17:28;4.45;;;3.55;;
10535;SDS011;5316;49.538;8.352;2023-05-02T14:19:57;10.30;;;8.35;;
10535;SDS011;5316;49.538;8.352;2023-05-02T14:22:23;3.50;;;3.20;;
10535;SDS011;5316;49.538;8.352;2023-05-02T14:24:50;3.00;;;2.80;;
10535;SDS011;5316;49.538;8.352;2023-05-02T14:27:17;3.47;;;2.90;;
10535;SDS011;5316;49.538;8.352;2023-05-02T14:29:44;2.08;;;1.98;;
10535;SDS011;5316;49.538;8.352;2023-05-02T14:32:11;3.13;;;2.20;;
10535;SDS011;5316;49.538;8.352;2023-05-02T14:34:39;3.65;;;2.00;;
10535;SDS011;5316;49.538;8.352;2023-05-02T14:37:07;2.05;;;1.73;;
10535;SDS011;5316;49.538;8.352;2023-05-02T14:39:34;2.20;;;1.70;;
10535;SDS011;5316;49.538;8.352;2023-05-02T14:42:01;1.20;;;1.20;;
10535;SDS011;5316;49.538;8.352;2023-05-02T14:44:28;1.70;;;1.40;;
10535;SDS011;5316;49.538;8.352;2023-05-02T14:46:55;1.60;;;1.50;;
10535;SDS011;5316;49.538;8.352;2023-05-02T14:49:22;1.50;;;1.40;;
10535;SDS011;5316;49.538;8.352;2023-05-02T14:51:49;1.57;;;1.40;;
10535;SDS011;5316;49.538;8.352;2023-05-02T14:54:17;2.13;;;1.60;;
10535;SDS011;5316;49.538;8.352;2023-05-02T14:56:44;1.70;;;1.60;;
10535;SDS011;5316;49.538;8.352;2023-05-02T14:59:12;1.38;;;1.30;;
10535;SDS011;5316;49.538;8.352;2023-05-02T15:01:38;1.90;;;1.80;;
10535;SDS011;5316;49.538;8.352;2023-05-02T15:04:05;1.92;;;1.80;;
10535;SDS011;5316;49.538;8.352;2023-05-02T15:06:32;2.00;;;1.77;;
10535;SDS011;5316;49.538;8.352;2023-05-02T15:08:59;2.10;;;1.95;;
10535;SDS011;5316;49.538;8.352;2023-05-02T15:11:28;2.08;;;1.92;;
10535;SDS011;5316;49.538;8.352;2023-05-02T15:13:55;1.98;;;1.83;;
10535;SDS011;5316;49.538;8.352;2023-05-02T15:16:38;2.13;;;2.00;;
10535;SDS011;5316;49.538;8.352;2023-05-02T15:19:13;2.58;;;2.15;;
10535;SDS011;5316;49.538;8.352;2023-05-02T15:24:40;2.35;;;2.25;;
10535;SDS011;5316;49.538;8.352;2023-05-02T15:27:13;2.83;;;2.63;;